Time;durP1;ratioP1;P1;durP2;ratioP2;P2;SDS_P1;SDS_P2;PMS_P1;PMS_P2;Temp;Humidity;BMP_temperature;BMP_pressure;BME280_temperature;BME280_humidity;BME280_pressure;Samples;Min_cycle;Max_cycle;Signal;HPM_P1;HPM_P2
2021/07/04 00:01:30;;;;;;;5.10;2.53;;;17.80;99.90;;;;;;4992724;28;20023;-84
2021/07/04 00:03:56;;;;;;;3.97;2.20;;;17.80;99.90;;;;;;5008204;28;20045;-85
2021/07/04 00:06:21;;;;;;;4.55;2.63;;;17.70;99.90;;;;;;4993098;28;20018;-84
2021/07/04 00:08:47;;;;;;;5.07;2.60;;;17.60;99.90;;;;;;4991460;28;20215;-84
2021/07/04 00:11:13;;;;;;;4.95;2.63;;;17.60;99.90;;;;;;4992220;28;20026;-84
2021/07/04 00:13:39;;;;;;;4.60;2.38;;;17.50;99.90;;;;;;4992348;28;20511;-84
2021/07/04 00:16:06;;;;;;;6.90;2.70;;;17.60;99.90;;;;;;4992466;28;20080;-85
2021/07/04 00:18:33;;;;;;;5.55;2.60;;;17.60;99.90;;;;;;4992538;28;20097;-85
2021/07/04 00:21:03;;;;;;;5.05;2.60;;;17.60;99.90;;;;;;4991368;28;20023;-84
2021/07/04 00:23:29;;;;;;;4.47;2.22;;;17.50;99.90;;;;;;4992994;28;20027;-84
2021/07/04 00:25:55;;;;;;;4.35;2.53;;;17.40;99.90;;;;;;4977648;28;20085;-84
2021/07/04 00:28:23;;;;;;;6.15;2.70;;;17.50;99.90;;;;;;4974491;28;20460;-85
2021/07/04 00:30:49;;;;;;;6.18;3.08;;;17.40;99.90;;;;;;4935162;28;1120412;-84
2021/07/04 00:33:15;;;;;;;5.05;2.45;;;17.30;99.90;;;;;;4986393;28;20480;-84
2021/07/04 00:35:40;;;;;;;5.20;3.08;;;17.30;99.90;;;;;;4993418;28;20141;-85
2021/07/04 00:38:08;;;;;;;5.22;2.88;;;17.20;99.90;;;;;;4998854;28;20054;-85
2021/07/04 00:40:35;;;;;;;4.70;2.67;;;17.20;99.90;;;;;;5003051;28;20108;-85
2021/07/04 00:43:02;;;;;;;5.97;2.97;;;17.10;99.90;;;;;;4973769;28;20065;-85
2021/07/04 00:45:28;;;;;;;5.45;3.15;;;17.10;99.90;;;;;;4972829;28;20450;-85
2021/07/04 00:47:54;;;;;;;5.43;3.00;;;17.10;99.90;;;;;;4974563;28;20045;-85
2021/07/04 00:50:22;;;;;;;5.50;2.60;;;17.10;99.90;;;;;;4987791;28;20027;-84
2021/07/04 00:52:49;;;;;;;6.88;3.08;;;17.20;99.90;;;;;;4988717;28;20117;-84
2021/07/04 00:55:17;;;;;;;4.43;2.55;;;17.10;99.90;;;;;;4988625;28;20091;-84
2021/07/04 00:57:44;;;;;;;6.20;3.33;;;17.20;99.90;;;;;;5000982;28;20045;-85
2021/07/04 01:00:13;;;;;;;5.60;3.03;;;17.20;99.90;;;;;;4994462;28;20034;-85
2021/07/04 01:02:39;;;;;;;5.80;3.03;;;17.30;99.90;;;;;;4997228;28;20023;-85
2021/07/04 01:05:09;;;;;;;4.78;2.78;;;17.20;99.90;;;;;;4991420;28;20429;-85
2021/07/04 01:07:35;;;;;;;5.82;3.35;;;17.20;99.90;;;;;;4976211;28;20030;-84
2021/07/04 01:10:00;;;;;;;6.45;3.33;;;17.10;99.90;;;;;;4974374;28;20026;-84
2021/07/04 01:12:26;;;;;;;5.45;2.80;;;17.10;99.90;;;;;;4976024;28;20030;-85
2021/07/04 01:14:51;;;;;;;6.88;3.08;;;17.10;99.90;;;;;;4977783;28;20027;-84
2021/07/04 01:17:17;;;;;;;6.65;3.03;;;17.10;99.90;;;;;;4976330;28;20030;-85
2021/07/04 01:19:43;;;;;;;5.68;3.20;;;17.00;99.90;;;;;;4976257;28;20019;-84
2021/07/04 01:22:11;;;;;;;5.72;3.40;;;17.00;99.90;;;;;;4978445;28;20035;-84
2021/07/04 01:24:37;;;;;;;5.38;3.28;;;16.80;99.90;;;;;;5011189;28;20031;-85
2021/07/04 01:27:03;;;;;;;6.50;3.25;;;16.80;99.90;;;;;;4995816;28;20027;-84
2021/07/04 01:29:29;;;;;;;5.32;3.15;;;16.70;99.90;;;;;;4990074;28;20054;-85
2021/07/04 01:31:54;;;;;;;5.07;3.00;;;16.80;99.90;;;;;;4975557;28;20380;-84
2021/07/04 01:34:20;;;;;;;6.47;3.45;;;16.80;99.90;;;;;;4977136;28;20027;-84
2021/07/04 01:36:45;;;;;;;6.07;2.58;;;16.80;99.90;;;;;;4975405;28;20463;-84
2021/07/04 01:39:11;;;;;;;5.55;2.85;;;16.80;99.90;;;;;;4994606;28;20042;-84
2021/07/04 01:41:37;;;;;;;6.97;3.53;;;16.60;99.90;;;;;;4988440;28;20124;-84
2021/07/04 01:44:03;;;;;;;8.20;3.70;;;16.80;99.90;;;;;;4986776;28;20023;-84
2021/07/04 01:46:28;;;;;;;6.20;3.10;;;16.90;99.90;;;;;;4995798;28;20712;-84
2021/07/04 01:48:54;;;;;;;5.25;3.03;;;16.80;99.90;;;;;;5011945;28;20034;-84
2021/07/04 01:51:20;;;;;;;4.55;2.70;;;16.80;99.90;;;;;;4997140;28;20033;-84
2021/07/04 01:53:46;;;;;;;5.25;3.17;;;16.80;99.90;;;;;;4997583;28;20034;-84
2021/07/04 01:56:11;;;;;;;5.18;3.00;;;16.80;99.90;;;;;;4996670;28;20031;-86
2021/07/04 01:58:39;;;;;;;5.50;3.15;;;16.80;99.90;;;;;;4996219;28;20022;-85
2021/07/04 02:01:06;;;;;;;5.53;3.20;;;16.80;99.90;;;;;;4990131;28;20027;-84
2021/07/04 02:03:31;;;;;;;4.82;3.10;;;16.80;99.90;;;;;;4978039;28;20022;-84
2021/07/04 02:05:57;;;;;;;6.30;3.38;;;16.80;99.90;;;;;;4978015;28;20069;-85
2021/07/04 02:08:23;;;;;;;5.57;3.33;;;17.00;99.90;;;;;;4977941;28;20062;-84
2021/07/04 02:10:49;;;;;;;5.93;3.40;;;16.90;99.90;;;;;;4982785;28;20035;-84
2021/07/04 02:13:15;;;;;;;5.63;3.13;;;16.90;99.90;;;;;;4996057;28;20148;-84
2021/07/04 02:15:41;;;;;;;4.93;3.33;;;16.90;99.90;;;;;;4997774;28;20504;-84
2021/07/04 02:18:11;;;;;;;6.72;3.17;;;16.90;99.90;;;;;;4996215;28;20038;-84
2021/07/04 02:20:47;;;;;;;6.57;3.85;;;16.90;99.90;;;;;;4996268;28;20031;-84
2021/07/04 02:23:19;;;;;;;7.07;3.35;;;17.00;99.90;;;;;;4988177;28;20030;-84
2021/07/04 02:25:47;;;;;;;5.57;3.15;;;17.00;99.90;;;;;;4998496;28;20084;-84
2021/07/04 02:28:15;;;;;;;5.43;3.47;;;17.00;99.90;;;;;;5002714;28;20041;-84
2021/07/04 02:30:42;;;;;;;7.32;3.47;;;17.00;99.90;;;;;;5016224;28;20061;-84
2021/07/04 02:33:09;;;;;;;5.72;3.28;;;17.00;99.90;;;;;;5015855;28;20050;-84
2021/07/04 02:35:39;;;;;;;6.85;3.50;;;17.00;99.90;;;;;;4986515;28;20027;-84
2021/07/04 02:38:06;;;;;;;7.00;3.22;;;17.00;99.90;;;;;;5014799;28;20112;-84
2021/07/04 02:40:32;;;;;;;5.57;3.42;;;17.00;99.90;;;;;;4992107;28;20027;-84
2021/07/04 02:42:59;;;;;;;7.00;2.88;;;17.00;99.90;;;;;;4976629;28;20101;-84
2021/07/04 02:45:25;;;;;;;5.88;2.92;;;17.00;99.90;;;;;;4978074;28;20078;-84
2021/07/04 02:47:51;;;;;;;5.57;3.28;;;17.00;99.90;;;;;;4979009;28;20026;-84
2021/07/04 02:50:21;;;;;;;6.25;3.50;;;17.00;99.90;;;;;;5012809;28;20032;-84
2021/07/04 02:52:50;;;;;;;5.80;3.72;;;17.00;99.90;;;;;;5016328;28;20029;-85
2021/07/04 02:55:17;;;;;;;5.57;3.33;;;17.00;99.90;;;;;;5010655;28;20041;-85
2021/07/04 02:57:42;;;;;;;8.18;3.40;;;17.00;99.90;;;;;;4996735;28;20067;-84
2021/07/04 03:00:10;;;;;;;5.38;3.00;;;17.00;99.90;;;;;;4994923;28;20026;-85
2021/07/04 03:02:36;;;;;;;6.60;3.20;;;17.00;99.90;;;;;;4995503;28;20043;-85
2021/07/04 03:05:03;;;;;;;5.57;3.35;;;17.00;99.90;;;;;;4995021;28;20022;-85
2021/07/04 03:07:29;;;;;;;6.70;3.80;;;17.00;99.90;;;;;;5015743;28;20030;-84
2021/07/04 03:09:55;;;;;;;13.18;3.70;;;17.00;99.90;;;;;;5005681;28;20679;-84
2021/07/04 03:12:20;;;;;;;5.78;3.40;;;16.90;99.90;;;;;;4995577;28;20469;-85
2021/07/04 03:14:46;;;;;;;7.20;3.28;;;17.00;99.90;;;;;;4995538;28;20031;-84
2021/07/04 03:17:12;;;;;;;5.15;3.28;;;16.90;99.90;;;;;;4995751;28;20030;-84
2021/07/04 03:19:37;;;;;;;4.78;2.65;;;16.90;99.90;;;;;;4991639;28;20109;-85
2021/07/04 03:22:03;;;;;;;6.97;3.30;;;17.00;99.90;;;;;;4976908;28;20034;-84
2021/07/04 03:24:29;;;;;;;5.80;2.97;;;16.90;99.90;;;;;;4992915;28;20109;-84
2021/07/04 03:26:55;;;;;;;6.05;3.20;;;17.00;99.90;;;;;;4983031;28;20615;-84
2021/07/04 03:29:20;;;;;;;5.55;3.45;;;16.90;99.90;;;;;;4996052;28;20093;-84
2021/07/04 03:31:46;;;;;;;6.15;3.03;;;16.90;99.90;;;;;;5014856;23;20069;-81
2021/07/04 03:34:11;;;;;;;7.35;4.20;;;17.00;99.90;;;;;;5007605;28;20054;-81
2021/07/04 03:36:37;;;;;;;4.90;2.97;;;17.00;99.90;;;;;;5003945;28;20036;-82
2021/07/04 03:39:04;;;;;;;6.10;3.30;;;17.00;99.90;;;;;;4980054;28;20038;-82
2021/07/04 03:41:30;;;;;;;5.75;3.28;;;16.90;99.90;;;;;;5005062;28;20026;-81
2021/07/04 03:43:59;;;;;;;8.25;3.47;;;16.90;99.90;;;;;;5019269;28;20033;-80
2021/07/04 03:46:25;;;;;;;6.10;3.38;;;16.90;99.90;;;;;;5003336;28;20019;-80
2021/07/04 03:48:50;;;;;;;5.13;3.10;;;17.00;99.90;;;;;;4984839;28;20076;-80
2021/07/04 03:51:16;;;;;;;5.18;3.00;;;17.00;99.90;;;;;;5018962;28;20022;-79
2021/07/04 03:53:42;;;;;;;7.00;3.30;;;17.00;99.90;;;;;;5015723;28;20049;-81
2021/07/04 03:56:07;;;;;;;6.20;3.45;;;16.90;99.90;;;;;;4980255;28;20039;-81
2021/07/04 03:58:33;;;;;;;6.60;3.45;;;16.90;99.90;;;;;;4980386;28;20034;-82
2021/07/04 04:00:58;;;;;;;5.82;3.72;;;16.90;99.90;;;;;;4979404;28;20037;-82
2021/07/04 04:03:24;;;;;;;8.38;3.80;;;17.00;99.90;;;;;;4981107;28;20484;-82
2021/07/04 04:05:50;;;;;;;6.22;3.88;;;16.90;99.90;;;;;;4986038;28;20038;-81
2021/07/04 04:08:15;;;;;;;8.02;3.90;;;16.80;99.90;;;;;;5019054;28;20145;-78
2021/07/04 04:10:41;;;;;;;5.70;3.25;;;16.90;99.90;;;;;;5019252;28;20105;-81
2021/07/04 04:13:07;;;;;;;5.22;3.33;;;16.90;99.90;;;;;;4996740;28;20050;-82
2021/07/04 04:15:32;;;;;;;7.32;3.97;;;17.00;99.90;;;;;;4980426;28;20042;-82
2021/07/04 04:17:58;;;;;;;5.75;3.45;;;17.10;99.90;;;;;;4978231;28;20039;-82
2021/07/04 04:20:25;;;;;;;6.97;3.88;;;17.20;99.90;;;;;;4978752;28;20022;-82
2021/07/04 04:22:50;;;;;;;7.57;3.92;;;17.20;99.90;;;;;;4986443;28;20041;-82
2021/07/04 04:25:16;;;;;;;6.25;3.58;;;17.30;99.90;;;;;;4997364;28;20026;-82
2021/07/04 04:27:42;;;;;;;6.15;3.75;;;17.20;99.90;;;;;;4995238;28;20038;-82
2021/07/04 04:30:08;;;;;;;7.80;3.90;;;17.30;99.90;;;;;;4979581;28;20038;-82
2021/07/04 04:32:34;;;;;;;6.00;3.60;;;17.30;99.90;;;;;;4978336;28;20031;-82
2021/07/04 04:35:00;;;;;;;9.20;4.07;;;17.40;99.90;;;;;;4979659;28;20027;-82
2021/07/04 04:37:25;;;;;;;6.03;3.80;;;17.40;99.90;;;;;;4980682;28;20046;-82
2021/07/04 04:39:51;;;;;;;6.55;4.10;;;17.40;99.90;;;;;;4981541;28;20039;-82
2021/07/04 04:42:17;;;;;;;6.10;3.75;;;17.40;99.90;;;;;;5018317;28;20097;-81
2021/07/04 04:44:42;;;;;;;7.82;3.78;;;17.30;99.90;;;;;;5017553;28;20041;-82
2021/07/04 04:47:08;;;;;;;7.53;4.10;;;17.30;99.90;;;;;;4990812;28;20066;-82
2021/07/04 04:49:34;;;;;;;5.20;3.67;;;17.40;99.90;;;;;;4977669;28;20427;-81
2021/07/04 04:52:00;;;;;;;6.28;4.03;;;17.20;99.90;;;;;;4978840;28;20027;-83
2021/07/04 04:54:25;;;;;;;7.65;4.00;;;17.20;99.90;;;;;;4993235;28;20090;-81
2021/07/04 04:56:51;;;;;;;6.35;3.97;;;17.20;99.90;;;;;;4993747;28;20113;-81
2021/07/04 04:59:17;;;;;;;7.40;3.50;;;17.20;99.90;;;;;;4993822;28;20027;-82
2021/07/04 05:01:43;;;;;;;6.63;4.07;;;17.30;99.90;;;;;;4978904;28;20027;-82
2021/07/04 05:04:09;;;;;;;7.07;3.80;;;17.30;99.90;;;;;;4993295;28;20456;-82
2021/07/04 05:06:35;;;;;;;5.80;3.33;;;17.30;99.90;;;;;;4978806;28;20023;-82
2021/07/04 05:09:02;;;;;;;5.68;3.13;;;17.30;99.90;;;;;;4993371;28;20042;-82
2021/07/04 05:11:27;;;;;;;5.85;3.08;;;17.40;99.90;;;;;;4978744;28;20023;-81
2021/07/04 05:13:53;;;;;;;8.50;3.72;;;17.50;99.90;;;;;;4994357;28;20031;-82
2021/07/04 05:16:19;;;;;;;7.50;3.78;;;17.40;99.90;;;;;;4979439;28;20053;-82
2021/07/04 05:18:45;;;;;;;7.18;4.15;;;17.40;99.90;;;;;;4979392;28;20543;-82
2021/07/04 05:21:10;;;;;;;6.45;3.47;;;17.40;99.90;;;;;;4978291;28;20035;-82
2021/07/04 05:23:36;;;;;;;6.40;3.72;;;17.40;99.90;;;;;;4991672;28;20365;-84
2021/07/04 05:26:02;;;;;;;9.48;3.83;;;17.40;99.90;;;;;;5000513;28;20045;-84
2021/07/04 05:28:28;;;;;;;5.93;3.53;;;17.40;99.90;;;;;;4998500;28;20057;-81
2021/07/04 05:30:55;;;;;;;6.50;3.88;;;17.60;99.90;;;;;;4995601;28;20083;-81
2021/07/04 05:33:20;;;;;;;6.95;3.53;;;17.70;99.90;;;;;;4980588;28;20062;-82
2021/07/04 05:35:47;;;;;;;6.25;3.45;;;17.60;99.90;;;;;;4981081;28;20038;-81
2021/07/04 05:38:22;;;;;;;6.15;3.40;;;17.70;99.90;;;;;;4981292;28;20101;-81
2021/07/04 05:40:49;;;;;;;4.97;2.72;;;17.80;99.90;;;;;;4997460;28;20030;-82
2021/07/04 05:43:16;;;;;;;5.78;2.90;;;17.90;99.90;;;;;;5019291;28;20128;-82
2021/07/04 05:45:42;;;;;;;5.82;3.25;;;18.00;99.90;;;;;;5021350;28;20022;-82
2021/07/04 05:48:09;;;;;;;4.93;3.10;;;18.20;99.90;;;;;;5021294;28;20028;-82
2021/07/04 05:50:35;;;;;;;7.30;3.15;;;18.30;99.90;;;;;;4985738;28;20023;-82
2021/07/04 05:53:01;;;;;;;5.82;3.47;;;18.50;99.90;;;;;;4986187;28;20022;-81
2021/07/04 05:55:26;;;;;;;6.35;3.47;;;18.60;99.90;;;;;;4985938;28;20078;-82
2021/07/04 05:57:52;;;;;;;6.53;3.28;;;18.70;99.90;;;;;;4985760;28;20058;-82
2021/07/04 06:00:18;;;;;;;6.40;3.22;;;18.80;99.90;;;;;;4984214;28;20448;-82
2021/07/04 06:02:44;;;;;;;7.25;3.25;;;18.90;99.90;;;;;;4984236;28;20074;-82
2021/07/04 06:05:13;;;;;;;7.32;3.13;;;18.90;99.90;;;;;;4988861;28;20035;-82
2021/07/04 06:07:38;;;;;;;6.43;3.38;;;18.80;99.90;;;;;;5004647;28;20074;-82
2021/07/04 06:10:04;;;;;;;5.63;2.90;;;18.80;99.90;;;;;;5002439;28;20018;-82
2021/07/04 06:12:30;;;;;;;5.43;2.97;;;18.80;99.90;;;;;;5002223;28;20026;-82
2021/07/04 06:14:55;;;;;;;5.05;2.75;;;18.80;99.90;;;;;;4999281;28;20422;-81
2021/07/04 06:17:21;;;;;;;5.25;2.92;;;18.80;99.90;;;;;;4981211;28;20039;-81
2021/07/04 06:19:47;;;;;;;5.90;3.25;;;18.70;99.90;;;;;;4982101;28;20623;-81
2021/07/04 06:22:12;;;;;;;6.90;3.30;;;18.70;99.90;;;;;;4983476;28;20038;-82
2021/07/04 06:24:38;;;;;;;5.07;3.28;;;18.70;99.90;;;;;;4998801;28;20026;-81
2021/07/04 06:27:04;;;;;;;5.25;2.88;;;18.80;99.90;;;;;;4997961;28;20069;-82
2021/07/04 06:29:30;;;;;;;6.25;3.25;;;18.90;99.90;;;;;;4981783;28;20023;-83
2021/07/04 06:31:55;;;;;;;6.07;3.03;;;19.10;99.90;;;;;;4982319;28;20058;-82
2021/07/04 06:34:21;;;;;;;5.45;3.38;;;19.30;99.90;;;;;;4996527;28;20027;-82
2021/07/04 06:36:46;;;;;;;4.75;3.10;;;19.30;99.90;;;;;;4982003;28;20374;-82
2021/07/04 06:39:13;;;;;;;5.45;3.25;;;19.40;99.90;;;;;;4980811;28;20045;-81
2021/07/04 06:41:39;;;;;;;5.15;2.90;;;19.50;99.90;;;;;;5005906;28;20073;-81
2021/07/04 06:44:05;;;;;;;5.38;2.67;;;19.40;99.90;;;;;;4983277;28;20027;-81
2021/07/04 06:46:31;;;;;;;4.75;2.90;;;19.50;99.90;;;;;;4984292;28;20081;-81
2021/07/04 06:48:57;;;;;;;5.50;3.20;;;19.30;99.90;;;;;;4999198;28;20041;-81
2021/07/04 06:51:23;;;;;;;5.40;3.00;;;19.30;99.90;;;;;;4983946;28;20117;-81
2021/07/04 06:53:48;;;;;;;4.68;2.67;;;19.50;99.90;;;;;;4983997;28;20023;-81
2021/07/04 06:56:14;;;;;;;5.53;2.58;;;19.70;99.90;;;;;;4982282;28;20027;-82
2021/07/04 06:58:40;;;;;;;4.80;3.05;;;19.90;99.90;;;;;;4981394;28;20038;-83
2021/07/04 07:01:07;;;;;;;4.40;2.50;;;20.00;99.90;;;;;;4983116;28;20507;-81
2021/07/04 07:03:33;;;;;;;6.13;2.95;;;20.20;99.90;;;;;;4983566;28;20081;-82
2021/07/04 07:05:59;;;;;;;5.97;3.20;;;20.20;99.90;;;;;;4985228;28;20035;-81
2021/07/04 07:08:24;;;;;;;5.43;2.85;;;19.90;99.90;;;;;;4984301;28;20082;-81
2021/07/04 07:10:50;;;;;;;7.43;3.33;;;19.70;99.90;;;;;;4997242;28;20085;-83
2021/07/04 07:13:16;;;;;;;6.63;3.50;;;19.70;99.90;;;;;;4982712;28;20038;-80
2021/07/04 07:15:44;;;;;;;4.97;2.65;;;19.70;99.90;;;;;;4998759;28;20026;-82
2021/07/04 07:18:10;;;;;;;5.95;3.00;;;19.90;99.90;;;;;;4982858;28;20026;-82
2021/07/04 07:20:37;;;;;;;5.03;3.10;;;19.90;99.90;;;;;;4982314;28;20034;-81
2021/07/04 07:23:03;;;;;;;4.88;2.90;;;19.70;99.90;;;;;;4985966;28;20034;-81
2021/07/04 07:25:28;;;;;;;5.47;3.03;;;20.20;99.90;;;;;;4983154;28;20038;-80
2021/07/04 07:27:54;;;;;;;7.85;3.28;;;20.70;99.90;;;;;;4981821;28;20034;-81
2021/07/04 07:30:21;;;;;;;5.32;3.05;;;20.90;99.90;;;;;;4982371;28;20388;-81
2021/07/04 07:32:47;;;;;;;5.05;3.08;;;21.00;99.90;;;;;;4982903;28;20125;-79
2021/07/04 07:35:13;;;;;;;6.70;2.95;;;20.70;99.90;;;;;;4980643;28;20603;-81
2021/07/04 07:37:39;;;;;;;5.32;2.70;;;20.60;99.90;;;;;;4978666;28;20567;-81
2021/07/04 07:40:07;;;;;;;5.25;2.65;;;20.60;99.90;;;;;;4985855;28;20495;-81
2021/07/04 07:42:33;;;;;;;8.10;3.30;;;20.60;99.90;;;;;;5016741;28;20026;-81
2021/07/04 07:45:00;;;;;;;6.22;2.83;;;20.50;99.90;;;;;;4977584;28;20026;-82
2021/07/04 07:47:26;;;;;;;4.70;2.55;;;20.70;99.90;;;;;;4977139;28;20034;-82
2021/07/04 07:49:51;;;;;;;4.78;2.47;;;20.90;99.90;;;;;;4978624;28;20026;-81
2021/07/04 07:52:17;;;;;;;4.05;2.45;;;21.20;99.90;;;;;;4981184;28;20715;-82
2021/07/04 07:54:42;;;;;;;5.50;2.67;;;21.30;99.90;;;;;;4979254;28;20015;-82
2021/07/04 07:57:08;;;;;;;5.18;3.10;;;21.50;99.90;;;;;;4981081;28;20361;-81
2021/07/04 07:59:34;;;;;;;5.10;3.03;;;21.60;99.90;;;;;;4978701;28;20030;-81
2021/07/04 08:02:00;;;;;;;4.63;2.78;;;21.70;99.90;;;;;;4978289;28;20126;-82
2021/07/04 08:04:27;;;;;;;4.55;2.67;;;21.80;99.90;;;;;;4976016;28;20037;-82
2021/07/04 08:06:53;;;;;;;5.28;3.10;;;22.00;99.90;;;;;;4991794;28;20026;-82
2021/07/04 08:09:18;;;;;;;5.20;2.90;;;22.10;99.90;;;;;;4975961;28;20026;-82
2021/07/04 08:11:44;;;;;;;5.97;3.40;;;21.90;99.90;;;;;;4985513;28;20079;-82
2021/07/04 08:14:10;;;;;;;5.47;2.90;;;21.80;99.90;;;;;;4994247;28;20030;-82
2021/07/04 08:16:35;;;;;;;4.93;2.60;;;21.60;99.90;;;;;;4998333;28;20022;-82
2021/07/04 08:19:01;;;;;;;5.18;2.90;;;21.90;99.90;;;;;;4998194;28;20026;-82
2021/07/04 08:21:28;;;;;;;6.07;2.58;;;22.20;99.90;;;;;;4998156;28;20057;-83
2021/07/04 08:23:55;;;;;;;5.43;3.30;;;22.20;99.90;;;;;;4997213;28;20113;-82
2021/07/04 08:26:21;;;;;;;4.95;2.95;;;22.20;99.90;;;;;;4982109;28;20019;-81
2021/07/04 08:28:46;;;;;;;5.20;2.80;;;22.10;99.90;;;;;;4984446;28;20038;-81
2021/07/04 08:31:12;;;;;;;6.05;2.88;;;22.70;99.90;;;;;;4984860;28;20030;-81
2021/07/04 08:33:38;;;;;;;4.50;2.70;;;22.70;99.90;;;;;;4985500;28;20087;-81
2021/07/04 08:36:04;;;;;;;3.95;2.45;;;22.60;99.90;;;;;;4983573;28;20055;-82
2021/07/04 08:38:29;;;;;;;5.15;3.25;;;22.40;99.90;;;;;;4982814;28;20035;-81
2021/07/04 08:40:55;;;;;;;4.53;2.60;;;22.20;99.90;;;;;;4989290;28;20034;-81
2021/07/04 08:43:33;;;;;;;4.65;2.53;;;22.10;99.90;;;;;;4997532;28;20046;-81
2021/07/04 08:45:59;;;;;;;6.03;2.80;;;21.90;99.90;;;;;;4980308;28;20038;-82
2021/07/04 08:48:26;;;;;;;4.30;2.75;;;22.00;99.90;;;;;;4980979;28;20050;-82
2021/07/04 08:50:52;;;;;;;3.85;2.13;;;22.20;99.90;;;;;;4980018;28;20031;-81
2021/07/04 08:53:19;;;;;;;5.28;2.50;;;22.60;99.90;;;;;;4979685;28;20095;-81
2021/07/04 08:55:46;;;;;;;5.22;2.30;;;22.90;99.90;;;;;;4981528;28;20019;-83
2021/07/04 08:58:12;;;;;;;5.07;2.40;;;23.40;99.90;;;;;;4981518;28;20086;-82
2021/07/04 09:00:38;;;;;;;5.53;2.25;;;23.50;99.90;;;;;;4982924;28;20027;-81
2021/07/04 09:03:24;;;;;;;4.57;2.40;;;23.50;99.90;;;;;;4984189;28;20111;-82
2021/07/04 09:05:49;;;;;;;3.50;1.92;;;24.00;99.90;;;;;;4984215;28;20043;-83
2021/07/04 09:08:20;;;;;;;3.40;1.85;;;24.50;99.90;;;;;;4983069;28;20037;-83
2021/07/04 09:11:06;;;;;;;4.90;1.97;;;24.40;99.90;;;;;;4980853;28;20112;-83
2021/07/04 09:13:31;;;;;;;5.53;2.60;;;24.10;99.90;;;;;;4999947;28;20309;-81
2021/07/04 09:16:11;;;;;;;5.05;2.03;;;23.30;99.90;;;;;;4998580;28;20026;-81
2021/07/04 09:18:37;;;;;;;4.65;2.05;;;23.00;99.90;;;;;;4996370;28;20027;-83
2021/07/04 09:21:24;;;;;;;3.22;1.80;;;22.90;99.90;;;;;;4985075;28;20035;-82
2021/07/04 09:23:50;;;;;;;4.05;2.08;;;22.90;99.90;;;;;;5003762;28;20041;-83
2021/07/04 09:26:39;;;;;;;3.28;1.83;;;22.90;99.90;;;;;;5003185;28;20026;-82
2021/07/04 09:29:06;;;;;;;5.53;2.28;;;22.80;99.90;;;;;;4984964;28;20047;-82
2021/07/04 09:31:32;;;;;;;3.97;2.05;;;22.90;99.90;;;;;;4984921;28;20073;-82
2021/07/04 09:34:11;;;;;;;4.25;2.45;;;22.80;99.90;;;;;;4999211;23;20473;-81
2021/07/04 09:36:39;;;;;;;3.55;1.88;;;23.20;99.90;;;;;;5000015;28;20058;-81
2021/07/04 09:39:20;;;;;;;4.30;2.75;;;23.30;99.90;;;;;;5003657;28;20049;-82
2021/07/04 09:42:02;;;;;;;3.90;2.25;;;23.30;99.90;;;;;;5017688;28;20029;-82
2021/07/04 09:44:28;;;;;;;4.30;2.10;;;23.50;99.90;;;;;;4984021;28;20027;-81
2021/07/04 09:47:16;;;;;;;3.72;2.30;;;23.50;99.90;;;;;;4992634;28;20532;-81
2021/07/04 09:49:43;;;;;;;3.70;2.10;;;23.70;99.90;;;;;;4993103;28;20035;-82
2021/07/04 09:52:17;;;;;;;3.53;1.85;;;23.90;99.90;;;;;;4982085;28;20027;-82
2021/07/04 09:54:57;;;;;;;3.40;1.88;;;24.20;99.90;;;;;;4977336;28;20022;-82
2021/07/04 09:57:24;;;;;;;4.43;1.90;;;23.80;99.90;;;;;;4976500;28;20047;-82
2021/07/04 10:00:14;;;;;;;3.75;1.58;;;23.50;99.90;;;;;;4977966;28;20035;-82
2021/07/04 10:02:40;;;;;;;3.92;1.60;;;23.00;99.90;;;;;;4978851;28;20094;-81
2021/07/04 10:05:15;;;;;;;3.22;1.60;;;23.20;99.90;;;;;;4976531;28;20515;-81
2021/07/04 10:07:42;;;;;;;3.88;1.70;;;23.30;99.90;;;;;;4977251;28;20027;-81
2021/07/04 10:10:09;;;;;;;3.13;1.83;;;23.40;99.90;;;;;;4995323;28;20049;-81
2021/07/04 10:12:35;;;;;;;4.05;2.15;;;23.60;99.90;;;;;;4975512;28;20054;-82
2021/07/04 10:15:01;;;;;;;2.95;1.73;;;23.40;99.90;;;;;;4975833;28;20102;-81
2021/07/04 10:17:30;;;;;;;3.25;2.10;;;23.30;99.90;;;;;;4977105;28;20038;-82
2021/07/04 10:19:58;;;;;;;3.38;1.80;;;23.30;99.90;;;;;;4976078;28;20031;-81
2021/07/04 10:22:23;;;;;;;3.90;2.25;;;23.30;99.90;;;;;;4977570;28;20046;-82
2021/07/04 10:24:50;;;;;;;3.70;1.77;;;23.50;99.90;;;;;;4976001;28;20037;-82
2021/07/04 10:27:16;;;;;;;4.43;1.88;;;23.60;99.90;;;;;;4977210;28;20031;-82
2021/07/04 10:29:43;;;;;;;5.38;2.05;;;23.70;99.90;;;;;;4976788;28;20029;-81
2021/07/04 10:32:12;;;;;;;4.18;1.70;;;23.80;99.90;;;;;;4977004;28;20477;-82
2021/07/04 10:34:48;;;;;;;2.55;1.42;;;23.90;99.90;;;;;;4991584;28;20057;-82
2021/07/04 10:37:28;;;;;;;3.85;1.85;;;23.40;99.90;;;;;;4977395;28;20497;-81
2021/07/04 10:40:14;;;;;;;4.63;1.55;;;23.30;99.90;;;;;;4987625;28;20504;-81
2021/07/04 10:42:40;;;;;;;3.28;1.65;;;23.60;99.90;;;;;;4983312;28;20466;-82
2021/07/04 10:45:30;;;;;;;3.75;1.65;;;23.50;99.90;;;;;;5015684;28;20113;-81
2021/07/04 10:47:58;;;;;;;2.70;1.35;;;23.10;99.90;;;;;;5013589;28;20052;-83
2021/07/04 10:50:25;;;;;;;3.92;1.60;;;23.20;99.90;;;;;;5003218;28;20096;-84
2021/07/04 10:52:53;;;;;;;5.40;1.67;;;23.40;99.90;;;;;;4993470;28;20025;-84
2021/07/04 10:55:30;;;;;;;3.22;1.70;;;23.50;99.90;;;;;;4993379;28;20033;-84
2021/07/04 10:57:58;;;;;;;4.13;1.65;;;23.50;99.90;;;;;;4993250;28;20498;-84
2021/07/04 11:00:43;;;;;;;4.47;1.52;;;23.40;99.90;;;;;;4991423;28;20046;-80
2021/07/04 11:03:41;;;;;;;4.57;1.85;;;23.30;99.90;;;;;;4977490;28;20034;-80
2021/07/04 11:06:06;;;;;;;2.97;1.50;;;23.20;99.90;;;;;;4933898;28;20039;-79
2021/07/04 11:08:51;;;;;;;3.47;1.90;;;23.10;99.90;;;;;;4977316;28;20042;-80
2021/07/04 11:11:27;;;;;;;3.65;1.70;;;23.10;99.90;;;;;;4975018;28;20031;-79
2021/07/04 11:14:08;;;;;;;2.90;1.55;;;23.00;99.90;;;;;;4992155;28;20512;-80
2021/07/04 11:16:33;;;;;;;2.92;1.50;;;23.20;99.90;;;;;;4976927;28;20114;-80
2021/07/04 11:19:08;;;;;;;3.80;1.70;;;23.30;99.90;;;;;;4977165;28;20066;-80
2021/07/04 11:21:49;;;;;;;2.45;1.17;;;23.50;99.90;;;;;;4977224;28;20023;-80
2021/07/04 11:24:27;;;;;;;3.42;1.65;;;23.40;99.90;;;;;;4994707;28;20030;-80
2021/07/04 11:27:19;;;;;;;2.90;1.60;;;23.60;99.90;;;;;;4996287;28;20158;-80
2021/07/04 11:30:21;;;;;;;3.35;1.90;;;23.50;99.90;;;;;;4994347;28;20027;-80
2021/07/04 11:32:47;;;;;;;3.17;1.52;;;23.70;99.90;;;;;;4995126;28;20568;-80
2021/07/04 11:35:13;;;;;;;2.60;1.45;;;24.10;99.90;;;;;;4996056;28;20420;-80
2021/07/04 11:37:41;;;;;;;3.10;1.60;;;24.10;99.90;;;;;;4990960;28;20480;-80
2021/07/04 11:40:07;;;;;;;3.00;1.48;;;24.10;99.90;;;;;;4976235;28;20055;-80
2021/07/04 11:42:32;;;;;;;3.42;1.55;;;24.30;99.90;;;;;;4980587;28;20093;-80
2021/07/04 11:44:58;;;;;;;2.65;1.38;;;24.30;99.90;;;;;;5015783;28;20030;-80
2021/07/04 11:47:24;;;;;;;3.65;1.63;;;24.30;99.90;;;;;;4993042;28;20035;-80
2021/07/04 11:49:49;;;;;;;2.83;1.48;;;24.30;99.90;;;;;;4990983;28;20480;-80
2021/07/04 11:52:19;;;;;;;2.85;1.55;;;24.50;99.90;;;;;;4976193;28;20061;-80
2021/07/04 11:54:46;;;;;;;3.28;1.55;;;24.50;99.90;;;;;;4977019;28;20019;-80
2021/07/04 11:57:31;;;;;;;2.95;1.60;;;24.50;99.90;;;;;;4976773;28;20035;-80
2021/07/04 12:00:06;;;;;;;2.50;1.42;;;24.40;99.90;;;;;;4990991;28;20399;-80
2021/07/04 12:02:34;;;;;;;2.90;1.50;;;24.00;99.90;;;;;;4976232;28;20704;-80
2021/07/04 12:05:12;;;;;;;4.10;1.90;;;23.80;99.90;;;;;;4976860;28;20053;-81
2021/07/04 12:07:38;;;;;;;2.85;1.38;;;23.70;99.90;;;;;;4976237;28;20109;-81
2021/07/04 12:10:04;;;;;;;3.60;1.70;;;23.70;99.90;;;;;;4991151;28;20054;-81
2021/07/04 12:12:33;;;;;;;3.63;1.73;;;23.40;99.90;;;;;;4976590;28;20023;-81
2021/07/04 12:15:03;;;;;;;3.47;1.80;;;23.30;99.90;;;;;;4975721;28;20023;-81
2021/07/04 12:17:36;;;;;;;3.20;1.93;;;23.20;99.90;;;;;;4974957;28;20034;-81
2021/07/04 12:20:26;;;;;;;4.53;1.88;;;23.30;99.90;;;;;;4975868;28;20035;-82
2021/07/04 12:23:05;;;;;;;5.10;1.90;;;23.40;99.90;;;;;;4983157;28;20045;-81
2021/07/04 12:25:34;;;;;;;3.55;2.00;;;23.60;99.90;;;;;;4994912;28;20224;-81
2021/07/04 12:28:07;;;;;;;3.60;2.08;;;23.80;99.90;;;;;;4994572;28;20041;-82
2021/07/04 12:30:34;;;;;;;3.75;1.92;;;23.90;99.90;;;;;;4992278;28;20022;-82
2021/07/04 12:33:04;;;;;;;3.67;2.00;;;24.30;99.90;;;;;;4991482;28;20039;-83
2021/07/04 12:35:49;;;;;;;3.20;1.80;;;24.90;99.90;;;;;;4993253;28;20026;-82
2021/07/04 12:38:30;;;;;;;3.67;1.80;;;25.30;99.90;;;;;;4991330;28;20026;-83
2021/07/04 12:41:03;;;;;;;3.40;1.88;;;25.70;99.90;;;;;;4998841;28;20090;-83
2021/07/04 12:43:38;;;;;;;4.50;1.95;;;26.00;99.90;;;;;;4994810;28;20172;-84
2021/07/04 12:46:12;;;;;;;3.47;1.85;;;26.50;99.90;;;;;;4993628;28;20050;-84
2021/07/04 12:48:46;;;;;;;3.05;1.75;;;26.90;99.90;;;;;;4988330;28;20105;-85
2021/07/04 12:51:12;;;;;;;3.20;2.33;;;27.00;99.90;;;;;;4988878;28;20031;-85